Time;durP1;ratioP1;P1;durP2;ratioP2;P2;SDS_P1;SDS_P2;PMS_P1;PMS_P2;Temp;Humidity;BMP_temperature;BMP_pressure;BME280_temperature;BME280_humidity;BME280_pressure;Samples;Min_cycle;Max_cycle;Signal;HPM_P1;HPM_P2
2023/07/29 00:02:04;;;;;;;9.05;2.22;;;;;;;;;;5012560;28;20086;-61
2023/07/29 00:04:31;;;;;;;6.00;1.88;;;;;;;;;;5012803;28;20440;-61
2023/07/29 00:06:58;;;;;;;6.20;1.73;;;;;;;;;;5012801;28;20044;-61
2023/07/29 00:09:25;;;;;;;8.85;1.77;;;;;;;;;;5012758;28;20090;-61
2023/07/29 00:11:52;;;;;;;3.55;1.40;;;;;;;;;;5012692;28;20400;-61
2023/07/29 00:14:19;;;;;;;8.23;1.95;;;;;;;;;;5012673;28;20026;-61
2023/07/29 00:16:47;;;;;;;5.05;1.27;;;;;;;;;;5012558;28;20362;-61
2023/07/29 00:19:14;;;;;;;7.22;1.55;;;;;;;;;;5012446;28;20022;-61
2023/07/29 00:21:41;;;;;;;10.70;1.75;;;;;;;;;;5012626;28;20495;-61
2023/07/29 00:24:08;;;;;;;5.07;1.60;;;;;;;;;;5012412;28;20061;-61
2023/07/29 00:26:35;;;;;;;6.85;1.85;;;;;;;;;;5012453;28;20388;-61
2023/07/29 00:29:02;;;;;;;4.78;1.25;;;;;;;;;;5012386;28;20796;-61
2023/07/29 00:31:29;;;;;;;4.40;1.15;;;;;;;;;;5012341;28;20362;-61
2023/07/29 00:33:58;;;;;;;7.20;1.17;;;;;;;;;;5012452;28;20034;-61
2023/07/29 00:36:25;;;;;;;5.65;1.30;;;;;;;;;;5012368;28;20040;-61
2023/07/29 00:38:54;;;;;;;8.15;1.40;;;;;;;;;;5012265;28;20492;-61
2023/07/29 00:41:22;;;;;;;6.07;1.45;;;;;;;;;;5012239;28;20109;-61
2023/07/29 00:43:49;;;;;;;6.07;1.50;;;;;;;;;;5012089;28;20392;-61
2023/07/29 00:46:17;;;;;;;4.55;1.27;;;;;;;;;;5012233;28;20366;-61
2023/07/29 00:48:44;;;;;;;5.00;1.25;;;;;;;;;;5012056;28;20022;-61
2023/07/29 00:51:12;;;;;;;4.43;1.17;;;;;;;;;;5012137;28;20018;-61
2023/07/29 00:53:39;;;;;;;2.90;1.00;;;;;;;;;;5012132;28;20026;-61
2023/07/29 00:56:06;;;;;;;3.67;1.10;;;;;;;;;;5012009;28;20077;-61
2023/07/29 00:58:33;;;;;;;4.63;1.33;;;;;;;;;;5011969;28;20025;-61
2023/07/29 01:01:00;;;;;;;3.45;1.00;;;;;;;;;;5012049;28;20026;-61
2023/07/29 01:03:27;;;;;;;6.15;1.08;;;;;;;;;;5011746;28;20049;-61
2023/07/29 01:06:04;;;;;;;3.97;1.15;;;;;;;;;;5011980;28;20037;-61
2023/07/29 01:08:40;;;;;;;4.65;1.00;;;;;;;;;;5011745;28;20104;-61
2023/07/29 01:11:28;;;;;;;3.33;1.30;;;;;;;;;;5011982;28;20488;-61
2023/07/29 01:14:00;;;;;;;2.13;0.90;;;;;;;;;;5011901;28;20030;-61
2023/07/29 01:16:42;;;;;;;5.82;1.30;;;;;;;;;;5011899;28;20081;-61
2023/07/29 01:19:16;;;;;;;6.55;1.08;;;;;;;;;;5011804;28;20072;-61
2023/07/29 01:21:43;;;;;;;6.78;1.13;;;;;;;;;;5011554;28;20435;-61
2023/07/29 01:24:10;;;;;;;2.63;0.95;;;;;;;;;;5010846;28;20380;-61
2023/07/29 01:26:37;;;;;;;2.95;0.90;;;;;;;;;;5009967;28;20033;-61
2023/07/29 01:29:04;;;;;;;6.70;1.48;;;;;;;;;;5010440;28;20038;-61
2023/07/29 01:31:34;;;;;;;8.05;1.35;;;;;;;;;;5010000;28;20141;-61
2023/07/29 01:34:10;;;;;;;10.40;1.27;;;;;;;;;;5009625;28;20456;-62
2023/07/29 01:36:40;;;;;;;10.13;1.40;;;;;;;;;;5008123;28;20022;-61
2023/07/29 01:39:08;;;;;;;9.60;1.70;;;;;;;;;;5009188;28;20096;-61
2023/07/29 01:41:35;;;;;;;4.28;1.33;;;;;;;;;;5010200;28;20034;-60
2023/07/29 01:44:03;;;;;;;12.80;1.60;;;;;;;;;;5009162;28;20045;-61
2023/07/29 01:46:30;;;;;;;15.30;1.90;;;;;;;;;;5010417;28;20040;-61
2023/07/29 01:48:57;;;;;;;6.63;1.50;;;;;;;;;;5007507;28;20037;-61
2023/07/29 01:51:24;;;;;;;8.90;1.40;;;;;;;;;;5010583;28;20128;-61
2023/07/29 01:53:51;;;;;;;10.98;1.80;;;;;;;;;;5010874;28;20026;-61
2023/07/29 01:56:19;;;;;;;6.72;1.20;;;;;;;;;;5011207;28;20021;-61
2023/07/29 01:58:46;;;;;;;6.72;1.50;;;;;;;;;;5010617;28;20034;-61
2023/07/29 02:01:13;;;;;;;8.50;1.52;;;;;;;;;;5011141;28;20116;-61
2023/07/29 02:03:40;;;;;;;8.60;1.20;;;;;;;;;;5012517;28;20050;-61
2023/07/29 02:06:07;;;;;;;7.45;1.58;;;;;;;;;;5013747;28;20032;-61
2023/07/29 02:08:34;;;;;;;7.18;1.42;;;;;;;;;;5013224;28;20106;-61
2023/07/29 02:11:01;;;;;;;5.00;1.25;;;;;;;;;;5013460;28;20034;-61
2023/07/29 02:13:28;;;;;;;6.18;1.58;;;;;;;;;;5013322;28;20484;-61
2023/07/29 02:15:55;;;;;;;12.98;2.80;;;;;;;;;;5013404;28;20025;-61
2023/07/29 02:18:22;;;;;;;12.30;4.55;;;;;;;;;;5013169;28;20075;-61
2023/07/29 02:20:50;;;;;;;15.55;6.15;;;;;;;;;;5012842;28;20066;-61
2023/07/29 02:23:20;;;;;;;19.52;7.55;;;;;;;;;;5013142;28;20037;-61
2023/07/29 02:25:47;;;;;;;17.77;8.85;;;;;;;;;;5013062;28;20033;-61
2023/07/29 02:28:14;;;;;;;19.45;9.98;;;;;;;;;;4995653;28;20037;-61
2023/07/29 02:30:44;;;;;;;24.85;9.82;;;;;;;;;;5012266;28;20512;-62
2023/07/29 02:33:11;;;;;;;20.88;10.43;;;;;;;;;;5012895;28;20369;-61
2023/07/29 02:35:38;;;;;;;19.35;9.52;;;;;;;;;;5012837;28;20159;-61
2023/07/29 02:38:05;;;;;;;21.23;8.93;;;;;;;;;;5012875;28;20065;-61
2023/07/29 02:40:32;;;;;;;18.83;9.35;;;;;;;;;;5012390;28;20045;-61
2023/07/29 02:42:59;;;;;;;13.40;7.75;;;;;;;;;;5012641;28;20423;-61
2023/07/29 02:45:26;;;;;;;13.88;7.72;;;;;;;;;;5012396;28;20140;-61
2023/07/29 02:47:53;;;;;;;15.80;7.35;;;;;;;;;;5012662;28;20025;-61
2023/07/29 02:50:20;;;;;;;15.13;7.13;;;;;;;;;;5011825;28;20117;-61
2023/07/29 02:52:48;;;;;;;18.30;6.65;;;;;;;;;;5012541;28;20034;-61
2023/07/29 02:55:15;;;;;;;11.18;5.70;;;;;;;;;;5012452;28;20029;-61
2023/07/29 02:57:42;;;;;;;11.23;5.88;;;;;;;;;;5012539;28;20117;-61
2023/07/29 03:00:09;;;;;;;11.68;5.55;;;;;;;;;;5012200;28;20472;-61
2023/07/29 03:02:36;;;;;;;10.70;5.05;;;;;;;;;;4826869;28;5377153;-61
2023/07/29 03:05:03;;;;;;;8.20;5.20;;;;;;;;;;5013598;28;20103;-61
2023/07/29 03:07:30;;;;;;;9.13;4.90;;;;;;;;;;5013669;28;20503;-62
2023/07/29 03:09:57;;;;;;;10.77;4.40;;;;;;;;;;5013597;28;20029;-61
2023/07/29 03:12:24;;;;;;;7.60;3.97;;;;;;;;;;5010675;28;20038;-61
2023/07/29 03:14:51;;;;;;;8.75;4.47;;;;;;;;;;5012404;28;20040;-61
2023/07/29 03:17:18;;;;;;;9.32;4.13;;;;;;;;;;5011713;28;20026;-61
2023/07/29 03:19:45;;;;;;;11.73;4.30;;;;;;;;;;5012095;28;20026;-61
2023/07/29 03:22:13;;;;;;;6.30;3.75;;;;;;;;;;5012368;28;20120;-61
2023/07/29 03:24:42;;;;;;;9.57;3.75;;;;;;;;;;5012179;28;20030;-61
2023/07/29 03:27:09;;;;;;;8.23;3.50;;;;;;;;;;5011913;28;20099;-62
2023/07/29 03:29:37;;;;;;;7.88;3.78;;;;;;;;;;5012484;28;20104;-63
2023/07/29 03:32:04;;;;;;;12.48;3.95;;;;;;;;;;5012296;28;20037;-62
2023/07/29 03:34:31;;;;;;;10.20;3.33;;;;;;;;;;5011255;28;20133;-63
2023/07/29 03:36:58;;;;;;;10.43;3.45;;;;;;;;;;5012659;28;20041;-62
2023/07/29 03:39:26;;;;;;;12.60;4.22;;;;;;;;;;5012175;28;20032;-62
2023/07/29 03:41:53;;;;;;;6.78;3.40;;;;;;;;;;5012587;28;20032;-62
2023/07/29 03:44:20;;;;;;;5.18;3.08;;;;;;;;;;5012442;28;20069;-62
2023/07/29 03:46:47;;;;;;;6.55;3.10;;;;;;;;;;5011569;28;20502;-62
2023/07/29 03:49:14;;;;;;;6.70;3.50;;;;;;;;;;5012008;28;20073;-62
2023/07/29 03:51:41;;;;;;;6.30;3.22;;;;;;;;;;5009984;28;20480;-62
2023/07/29 03:54:08;;;;;;;8.13;2.95;;;;;;;;;;5012684;28;20816;-63
2023/07/29 03:56:35;;;;;;;7.53;3.00;;;;;;;;;;5012053;28;20395;-62
2023/07/29 03:59:06;;;;;;;7.70;3.45;;;;;;;;;;5012111;28;20045;-62
2023/07/29 04:01:33;;;;;;;5.95;3.10;;;;;;;;;;5011785;28;20049;-63
2023/07/29 04:04:00;;;;;;;6.70;3.10;;;;;;;;;;5009551;28;20076;-62
2023/07/29 04:06:27;;;;;;;5.53;2.90;;;;;;;;;;5012109;28;20022;-62
2023/07/29 04:08:54;;;;;;;7.18;2.97;;;;;;;;;;5011567;28;20037;-62
2023/07/29 04:11:22;;;;;;;4.20;2.80;;;;;;;;;;5009302;28;20030;-62
2023/07/29 04:13:49;;;;;;;5.63;2.50;;;;;;;;;;5012062;28;20033;-62
2023/07/29 04:16:16;;;;;;;5.68;2.83;;;;;;;;;;5010693;28;20042;-62
2023/07/29 04:18:43;;;;;;;4.05;2.30;;;;;;;;;;5009409;28;20480;-63
2023/07/29 04:21:10;;;;;;;6.28;2.53;;;;;;;;;;5011697;28;20511;-63
2023/07/29 04:23:38;;;;;;;7.35;2.70;;;;;;;;;;5011499;28;20038;-62
2023/07/29 04:26:05;;;;;;;5.47;2.30;;;;;;;;;;5011844;28;20038;-62
2023/07/29 04:28:32;;;;;;;5.40;3.05;;;;;;;;;;5012330;28;20116;-63
2023/07/29 04:30:59;;;;;;;5.65;2.42;;;;;;;;;;5012338;28;20026;-62
2023/07/29 04:33:26;;;;;;;5.63;2.42;;;;;;;;;;5012401;28;20473;-62
2023/07/29 04:35:53;;;;;;;4.70;2.58;;;;;;;;;;5012227;28;20026;-63
2023/07/29 04:38:20;;;;;;;4.72;2.38;;;;;;;;;;5012036;28;20481;-62
2023/07/29 04:40:50;;;;;;;4.25;2.22;;;;;;;;;;5012191;28;20095;-62
2023/07/29 04:43:17;;;;;;;3.90;1.83;;;;;;;;;;5011954;28;20061;-62
2023/07/29 04:45:45;;;;;;;4.68;2.35;;;;;;;;;;5012096;28;20029;-62
2023/07/29 04:48:12;;;;;;;3.53;2.00;;;;;;;;;;5011765;28;20073;-62
2023/07/29 04:50:39;;;;;;;5.10;2.15;;;;;;;;;;5012044;28;20022;-62
2023/07/29 04:53:06;;;;;;;2.92;2.03;;;;;;;;;;5012152;28;20073;-63
2023/07/29 04:55:33;;;;;;;3.13;2.10;;;;;;;;;;5012100;28;20037;-63
2023/07/29 04:58:00;;;;;;;4.20;2.05;;;;;;;;;;5011980;28;20041;-62
2023/07/29 05:00:27;;;;;;;3.67;2.25;;;;;;;;;;5011935;28;20037;-63
2023/07/29 05:02:54;;;;;;;3.92;1.90;;;;;;;;;;5011795;28;20046;-62
2023/07/29 05:05:21;;;;;;;5.18;2.00;;;;;;;;;;5011635;28;20034;-62
2023/07/29 05:07:48;;;;;;;5.18;2.05;;;;;;;;;;5011890;28;20034;-62
2023/07/29 05:10:15;;;;;;;3.75;1.80;;;;;;;;;;5012012;28;20029;-62
2023/07/29 05:12:42;;;;;;;5.03;2.13;;;;;;;;;;5011936;28;20033;-62
2023/07/29 05:15:09;;;;;;;4.10;1.73;;;;;;;;;;5011899;28;20026;-62
2023/07/29 05:17:36;;;;;;;3.42;1.90;;;;;;;;;;5011850;28;20034;-62
2023/07/29 05:20:03;;;;;;;5.03;1.95;;;;;;;;;;5011927;28;20021;-62
2023/07/29 05:22:30;;;;;;;5.07;2.00;;;;;;;;;;5011742;28;20137;-62
2023/07/29 05:24:57;;;;;;;3.97;1.70;;;;;;;;;;5011813;28;20129;-62
2023/07/29 05:27:24;;;;;;;3.15;2.10;;;;;;;;;;5011724;28;20030;-62
2023/07/29 05:29:51;;;;;;;2.92;1.58;;;;;;;;;;5011781;28;20080;-62
2023/07/29 05:32:18;;;;;;;3.03;1.73;;;;;;;;;;5011780;28;20019;-63
2023/07/29 05:34:45;;;;;;;2.17;1.40;;;;;;;;;;5011714;28;20471;-62
2023/07/29 05:37:12;;;;;;;2.92;1.60;;;;;;;;;;5012442;28;20507;-62
2023/07/29 05:39:39;;;;;;;4.28;1.70;;;;;;;;;;5015610;28;20056;-62
2023/07/29 05:42:06;;;;;;;6.82;1.75;;;;;;;;;;5015503;28;20026;-62
2023/07/29 05:44:33;;;;;;;2.38;1.48;;;;;;;;;;5015488;28;20022;-62
2023/07/29 05:47:00;;;;;;;2.30;1.35;;;;;;;;;;5015481;28;20062;-63
2023/07/29 05:49:27;;;;;;;3.80;1.42;;;;;;;;;;5015510;28;20103;-62
2023/07/29 05:51:54;;;;;;;4.90;1.70;;;;;;;;;;4997699;28;20031;-62
2023/07/29 05:54:21;;;;;;;4.70;1.55;;;;;;;;;;4995727;28;20022;-62
2023/07/29 05:56:48;;;;;;;2.58;1.60;;;;;;;;;;4995572;28;20061;-62
2023/07/29 05:59:16;;;;;;;3.40;1.50;;;;;;;;;;4995558;28;20030;-62
2023/07/29 06:01:43;;;;;;;2.08;1.27;;;;;;;;;;5001480;28;20033;-63
2023/07/29 06:04:10;;;;;;;2.85;1.40;;;;;;;;;;5013824;28;20507;-62
2023/07/29 06:06:37;;;;;;;2.88;1.40;;;;;;;;;;5015192;28;20037;-62
2023/07/29 06:09:04;;;;;;;5.20;1.30;;;;;;;;;;5014993;28;20034;-63
2023/07/29 06:11:31;;;;;;;3.70;1.75;;;;;;;;;;5015074;28;20026;-62
2023/07/29 06:13:58;;;;;;;3.97;1.60;;;;;;;;;;5015032;28;20030;-63
2023/07/29 06:16:25;;;;;;;2.88;1.40;;;;;;;;;;5014935;28;20026;-62
2023/07/29 06:18:52;;;;;;;3.05;1.50;;;;;;;;;;5014790;28;20042;-62
2023/07/29 06:21:20;;;;;;;3.20;1.15;;;;;;;;;;5014899;28;20038;-62
2023/07/29 06:23:47;;;;;;;2.95;1.52;;;;;;;;;;5014809;28;20030;-62
2023/07/29 06:26:14;;;;;;;3.55;1.60;;;;;;;;;;5014766;28;20480;-62
2023/07/29 06:28:41;;;;;;;4.03;1.23;;;;;;;;;;5014588;28;20175;-62
2023/07/29 06:31:09;;;;;;;2.67;1.30;;;;;;;;;;5014535;28;20041;-62
2023/07/29 06:33:35;;;;;;;2.67;1.20;;;;;;;;;;5014501;28;20468;-62
2023/07/29 06:36:03;;;;;;;3.35;1.35;;;;;;;;;;5014547;28;20044;-62
2023/07/29 06:38:30;;;;;;;2.78;1.20;;;;;;;;;;5014422;28;20045;-62
2023/07/29 06:40:57;;;;;;;2.95;1.35;;;;;;;;;;5014459;28;20022;-62
2023/07/29 06:43:24;;;;;;;2.15;1.20;;;;;;;;;;5014324;28;20041;-62
2023/07/29 06:45:51;;;;;;;3.20;1.48;;;;;;;;;;5013117;28;20649;-62
2023/07/29 06:48:19;;;;;;;3.08;1.40;;;;;;;;;;5014107;28;20036;-62
2023/07/29 06:50:46;;;;;;;4.93;1.40;;;;;;;;;;5014135;28;20065;-62
2023/07/29 06:53:13;;;;;;;3.50;1.27;;;;;;;;;;5014228;28;20036;-62
2023/07/29 06:55:41;;;;;;;2.53;1.30;;;;;;;;;;5014150;28;20096;-62
2023/07/29 06:58:08;;;;;;;2.25;1.30;;;;;;;;;;5014174;28;20028;-63
2023/07/29 07:00:35;;;;;;;3.35;1.50;;;;;;;;;;5012854;28;20029;-62
2023/07/29 07:03:02;;;;;;;3.42;1.30;;;;;;;;;;5013850;28;20403;-62
2023/07/29 07:05:29;;;;;;;3.63;1.25;;;;;;;;;;5013948;28;20025;-62
2023/07/29 07:07:56;;;;;;;2.90;1.15;;;;;;;;;;5013838;28;20385;-62
2023/07/29 07:10:23;;;;;;;2.70;1.38;;;;;;;;;;5013963;28;20057;-62
2023/07/29 07:12:50;;;;;;;2.67;1.23;;;;;;;;;;5013876;28;20077;-62
2023/07/29 07:15:17;;;;;;;2.97;1.33;;;;;;;;;;5013859;28;20141;-62
2023/07/29 07:17:44;;;;;;;3.63;1.23;;;;;;;;;;5013680;28;20018;-62
2023/07/29 07:20:11;;;;;;;5.13;1.60;;;;;;;;;;5013840;28;20118;-62
2023/07/29 07:22:39;;;;;;;3.22;1.30;;;;;;;;;;5013669;28;20120;-62
2023/07/29 07:25:06;;;;;;;4.30;1.40;;;;;;;;;;5013585;28;20468;-62
2023/07/29 07:27:33;;;;;;;2.75;1.27;;;;;;;;;;5013591;28;20073;-62
2023/07/29 07:30:00;;;;;;;2.50;1.40;;;;;;;;;;5013520;28;20559;-62
2023/07/29 07:32:27;;;;;;;4.50;1.40;;;;;;;;;;5013578;28;20034;-62
2023/07/29 07:34:54;;;;;;;2.03;1.00;;;;;;;;;;5012152;28;20036;-62
2023/07/29 07:37:21;;;;;;;3.40;1.48;;;;;;;;;;5013388;28;20026;-62
2023/07/29 07:39:48;;;;;;;3.90;1.40;;;;;;;;;;5013323;28;20022;-62
2023/07/29 07:42:15;;;;;;;2.97;1.23;;;;;;;;;;5013223;28;20033;-62
2023/07/29 07:44:42;;;;;;;2.42;1.20;;;;;;;;;;5013321;28;20022;-62
2023/07/29 07:47:09;;;;;;;2.00;1.38;;;;;;;;;;5013171;28;20041;-62
2023/07/29 07:49:36;;;;;;;2.92;1.25;;;;;;;;;;5013255;28;20034;-62
2023/07/29 07:52:03;;;;;;;4.75;1.55;;;;;;;;;;5013100;28;20519;-62
2023/07/29 07:54:30;;;;;;;1.95;1.13;;;;;;;;;;5013077;28;20033;-62
2023/07/29 07:56:57;;;;;;;2.67;1.50;;;;;;;;;;5012985;28;20429;-62
2023/07/29 07:59:24;;;;;;;3.25;1.38;;;;;;;;;;5012737;28;20033;-62
2023/07/29 08:01:52;;;;;;;5.82;1.60;;;;;;;;;;5012472;28;20029;-62
2023/07/29 08:04:19;;;;;;;4.50;1.40;;;;;;;;;;5012738;28;20396;-62
2023/07/29 08:06:46;;;;;;;5.72;1.23;;;;;;;;;;5012898;28;20022;-62
2023/07/29 08:09:13;;;;;;;5.25;1.40;;;;;;;;;;5012755;28;20030;-62
2023/07/29 08:11:40;;;;;;;2.22;1.17;;;;;;;;;;5012877;28;20468;-62
2023/07/29 08:14:07;;;;;;;4.22;1.33;;;;;;;;;;5012749;28;20037;-62
2023/07/29 08:16:34;;;;;;;5.80;1.33;;;;;;;;;;5012776;28;20025;-62
2023/07/29 08:19:01;;;;;;;6.28;1.80;;;;;;;;;;5012526;28;20080;-62
2023/07/29 08:21:28;;;;;;;4.78;1.30;;;;;;;;;;5012614;28;20029;-63
2023/07/29 08:23:55;;;;;;;7.10;1.58;;;;;;;;;;5012582;28;20125;-62
2023/07/29 08:26:22;;;;;;;5.80;1.85;;;;;;;;;;5012582;28;20073;-62
2023/07/29 08:28:49;;;;;;;4.68;1.75;;;;;;;;;;5012519;28;20025;-63
2023/07/29 08:31:16;;;;;;;4.28;1.70;;;;;;;;;;5012477;28;20488;-62
2023/07/29 08:33:43;;;;;;;3.88;1.60;;;;;;;;;;5012488;28;20030;-62
2023/07/29 08:36:10;;;;;;;8.32;1.70;;;;;;;;;;5012468;28;20026;-62
2023/07/29 08:38:37;;;;;;;4.07;1.42;;;;;;;;;;5012359;28;20157;-62
2023/07/29 08:41:22;;;;;;;5.20;1.75;;;;;;;;;;5012394;28;20029;-62
2023/07/29 08:44:07;;;;;;;6.38;1.85;;;;;;;;;;5012316;28;20049;-62
2023/07/29 08:46:34;;;;;;;7.78;1.83;;;;;;;;;;5012300;28;20034;-63
2023/07/29 08:49:02;;;;;;;4.38;1.65;;;;;;;;;;5012162;28;20034;-62
2023/07/29 08:51:30;;;;;;;5.15;1.75;;;;;;;;;;5012160;28;20036;-62
2023/07/29 08:53:57;;;;;;;7.22;1.83;;;;;;;;;;5012214;28;20029;-62
2023/07/29 08:56:25;;;;;;;7.50;1.90;;;;;;;;;;5012184;28;20085;-62
2023/07/29 08:58:52;;;;;;;7.50;1.85;;;;;;;;;;5012016;28;20037;-62
2023/07/29 09:01:19;;;;;;;6.05;2.10;;;;;;;;;;5012129;28;20025;-62
2023/07/29 09:03:46;;;;;;;3.33;1.60;;;;;;;;;;5011810;28;20049;-62
2023/07/29 09:06:15;;;;;;;3.85;1.67;;;;;;;;;;5012089;28;20021;-62
2023/07/29 09:08:42;;;;;;;7.57;1.80;;;;;;;;;;5011944;28;20033;-62
2023/07/29 09:11:09;;;;;;;6.88;1.63;;;;;;;;;;5011531;28;20026;-62
2023/07/29 09:13:36;;;;;;;6.57;1.60;;;;;;;;;;5011505;28;20558;-62
2023/07/29 09:16:03;;;;;;;2.53;1.40;;;;;;;;;;5011851;28;20472;-62
2023/07/29 09:18:30;;;;;;;7.97;1.65;;;;;;;;;;5011778;28;20029;-62
2023/07/29 09:21:00;;;;;;;7.68;1.70;;;;;;;;;;5011939;28;20060;-62
2023/07/29 09:23:28;;;;;;;4.53;1.65;;;;;;;;;;5008820;28;20534;-62
2023/07/29 09:26:04;;;;;;;3.25;1.65;;;;;;;;;;5011878;28;20037;-62
2023/07/29 09:28:36;;;;;;;3.88;1.73;;;;;;;;;;5011669;28;20129;-62
2023/07/29 09:31:03;;;;;;;5.85;1.70;;;;;;;;;;5011809;28;20076;-62
2023/07/29 09:33:36;;;;;;;6.40;1.58;;;;;;;;;;5011835;28;20045;-62
2023/07/29 09:36:12;;;;;;;4.00;1.52;;;;;;;;;;5011714;28;20037;-62
2023/07/29 09:38:39;;;;;;;4.57;1.50;;;;;;;;;;5011674;28;20030;-63
2023/07/29 09:41:06;;;;;;;7.18;1.80;;;;;;;;;;5011721;28;20033;-63
2023/07/29 09:43:34;;;;;;;6.07;1.83;;;;;;;;;;5011629;28;20056;-62
2023/07/29 09:46:02;;;;;;;3.58;1.45;;;;;;;;;;5011587;28;20036;-63
2023/07/29 09:48:29;;;;;;;2.30;1.52;;;;;;;;;;5011632;28;20176;-62
2023/07/29 09:50:56;;;;;;;7.20;2.05;;;;;;;;;;5011526;28;20036;-62
2023/07/29 09:53:23;;;;;;;3.15;1.45;;;;;;;;;;5011681;28;20030;-62
2023/07/29 09:55:50;;;;;;;3.33;1.40;;;;;;;;;;5011587;28;20029;-62
2023/07/29 09:58:26;;;;;;;5.45;1.60;;;;;;;;;;5011352;28;20038;-62
2023/07/29 10:00:54;;;;;;;3.47;1.45;;;;;;;;;;5011506;28;20084;-62
2023/07/29 10:03:22;;;;;;;2.70;1.30;;;;;;;;;;5011171;28;20439;-63
2023/07/29 10:05:50;;;;;;;8.00;1.73;;;;;;;;;;5011419;28;20033;-62
2023/07/29 10:08:17;;;;;;;5.35;1.75;;;;;;;;;;5011474;28;20384;-62
2023/07/29 10:10:45;;;;;;;4.18;1.40;;;;;;;;;;5011358;28;20109;-62
2023/07/29 10:13:13;;;;;;;4.95;1.90;;;;;;;;;;5009957;28;20034;-62
2023/07/29 10:15:41;;;;;;;5.43;1.80;;;;;;;;;;5011481;28;20030;-62
2023/07/29 10:18:08;;;;;;;4.93;1.83;;;;;;;;;;5011287;28;20057;-62
2023/07/29 10:20:36;;;;;;;3.30;1.60;;;;;;;;;;5011364;28;20093;-62
2023/07/29 10:23:04;;;;;;;3.40;1.73;;;;;;;;;;5011816;28;20103;-62
2023/07/29 10:25:41;;;;;;;5.13;1.60;;;;;;;;;;5014484;28;20033;-62
2023/07/29 10:28:09;;;;;;;2.97;1.77;;;;;;;;;;5014632;28;20037;-62
2023/07/29 10:30:36;;;;;;;5.05;1.50;;;;;;;;;;5014682;28;20426;-62
2023/07/29 10:33:04;;;;;;;4.25;1.67;;;;;;;;;;5014127;28;20361;-62
2023/07/29 10:35:33;;;;;;;4.95;1.70;;;;;;;;;;5014602;28;20062;-62
2023/07/29 10:38:00;;;;;;;4.43;1.52;;;;;;;;;;5014841;28;20432;-62
2023/07/29 10:40:27;;;;;;;6.50;1.83;;;;;;;;;;5014548;28;20187;-62
2023/07/29 10:43:04;;;;;;;4.40;1.63;;;;;;;;;;5014270;28;20037;-62
2023/07/29 10:45:41;;;;;;;7.05;2.50;;;;;;;;;;4996664;28;20038;-58
2023/07/29 10:48:08;;;;;;;10.02;2.20;;;;;;;;;;4994500;28;20041;-64
2023/07/29 10:50:35;;;;;;;10.32;2.15;;;;;;;;;;4994537;28;20034;-62
2023/07/29 10:53:02;;;;;;;8.05;2.22;;;;;;;;;;5023372;28;20542;-61
2023/07/29 10:55:30;;;;;;;8.40;1.98;;;;;;;;;;5012439;28;20041;-61
2023/07/29 10:58:06;;;;;;;12.18;2.13;;;;;;;;;;5013915;28;20030;-61
2023/07/29 11:00:33;;;;;;;11.35;2.58;;;;;;;;;;5013540;28;20022;-61
2023/07/29 11:03:02;;;;;;;8.48;2.08;;;;;;;;;;5013834;28;20065;-61
2023/07/29 11:05:43;;;;;;;6.68;2.10;;;;;;;;;;5013908;28;20038;-61
2023/07/29 11:08:29;;;;;;;9.02;2.10;;;;;;;;;;5013825;28;20033;-61
2023/07/29 11:11:04;;;;;;;10.05;2.08;;;;;;;;;;5013975;28;20480;-61
2023/07/29 11:13:31;;;;;;;7.88;2.22;;;;;;;;;;5013981;28;20045;-61
2023/07/29 11:15:59;;;;;;;8.60;2.30;;;;;;;;;;5013830;28;20091;-61
2023/07/29 11:18:30;;;;;;;11.32;2.17;;;;;;;;;;5013363;28;20034;-61
2023/07/29 11:20:58;;;;;;;6.13;1.83;;;;;;;;;;5012454;28;20441;-61
2023/07/29 11:23:35;;;;;;;5.13;1.90;;;;;;;;;;5013665;28;20053;-61
2023/07/29 11:26:03;;;;;;;6.82;1.65;;;;;;;;;;5013420;28;20109;-61
2023/07/29 11:28:31;;;;;;;8.77;2.03;;;;;;;;;;5013464;28;20504;-61
2023/07/29 11:30:58;;;;;;;6.18;1.75;;;;;;;;;;5013350;28;20531;-61
2023/07/29 11:33:27;;;;;;;6.20;1.95;;;;;;;;;;5013529;28;20034;-61
2023/07/29 11:35:55;;;;;;;6.57;1.80;;;;;;;;;;5012414;28;20107;-61
2023/07/29 11:38:23;;;;;;;6.47;2.35;;;;;;;;;;4995568;28;20030;-61
2023/07/29 11:41:03;;;;;;;15.20;2.70;;;;;;;;;;4993733;28;20105;-61
2023/07/29 11:43:30;;;;;;;10.43;2.17;;;;;;;;;;4993536;28;20065;-61
2023/07/29 11:45:57;;;;;;;14.77;2.30;;;;;;;;;;4993466;28;20034;-60
2023/07/29 11:48:28;;;;;;;12.80;2.35;;;;;;;;;;4993425;28;20030;-60
2023/07/29 11:50:55;;;;;;;9.30;2.45;;;;;;;;;;4993583;28;20034;-60
2023/07/29 11:53:22;;;;;;;13.15;2.85;;;;;;;;;;4993552;28;20035;-60
2023/07/29 11:55:53;;;;;;;11.82;2.47;;;;;;;;;;4993559;28;20035;-60
2023/07/29 11:58:21;;;;;;;7.57;2.17;;;;;;;;;;4993458;28;20491;-60
2023/07/29 12:00:48;;;;;;;9.90;2.28;;;;;;;;;;4993289;28;20492;-60
2023/07/29 12:03:17;;;;;;;5.97;1.70;;;;;;;;;;4993057;28;20054;-60
2023/07/29 12:05:45;;;;;;;4.45;1.85;;;;;;;;;;4993302;28;20405;-60
2023/07/29 12:08:12;;;;;;;8.45;2.15;;;;;;;;;;4998236;28;20396;-60
2023/07/29 12:10:39;;;;;;;6.70;2.33;;;;;;;;;;4993247;28;20120;-60
2023/07/29 12:13:09;;;;;;;8.13;2.20;;;;;;;;;;4998216;28;20029;-61
2023/07/29 12:15:36;;;;;;;9.15;2.38;;;;;;;;;;5011870;28;20038;-60
2023/07/29 12:18:03;;;;;;;5.20;1.77;;;;;;;;;;5012114;28;20035;-61
2023/07/29 12:20:30;;;;;;;7.97;2.08;;;;;;;;;;5011862;28;20088;-60
2023/07/29 12:22:58;;;;;;;7.78;2.40;;;;;;;;;;5012203;28;20045;-60
2023/07/29 12:25:26;;;;;;;9.27;2.97;;;;;;;;;;5012022;28;20045;-60
2023/07/29 12:27:53;;;;;;;10.55;2.38;;;;;;;;;;5010472;28;20041;-61
2023/07/29 12:30:27;;;;;;;6.60;2.20;;;;;;;;;;5012358;28;20076;-60
2023/07/29 12:32:54;;;;;;;6.85;2.28;;;;;;;;;;5012250;28;20472;-60
2023/07/29 12:35:21;;;;;;;5.50;1.98;;;;;;;;;;5012431;28;20038;-60
2023/07/29 12:37:58;;;;;;;7.80;2.67;;;;;;;;;;5012255;28;20029;-60
2023/07/29 12:40:28;;;;;;;6.82;2.75;;;;;;;;;;5012213;28;20110;-60
2023/07/29 12:42:55;;;;;;;12.10;3.28;;;;;;;;;;5012222;28;20042;-60
2023/07/29 12:45:28;;;;;;;14.13;2.78;;;;;;;;;;5012196;28;20022;-60
2023/07/29 12:47:55;;;;;;;7.20;2.58;;;;;;;;;;5011849;28;20092;-60
2023/07/29 12:50:22;;;;;;;10.70;2.38;;;;;;;;;;5012107;28;20018;-60
2023/07/29 12:52:49;;;;;;;10.23;2.45;;;;;;;;;;5012081;28;20084;-60
2023/07/29 12:55:16;;;;;;;9.88;2.53;;;;;;;;;;5012155;28;20548;-60
2023/07/29 12:57:43;;;;;;;6.30;2.40;;;;;;;;;;5011650;28;20117;-60
2023/07/29 13:00:11;;;;;;;11.23;2.92;;;;;;;;;;5012068;28;20026;-60
2023/07/29 13:02:38;;;;;;;11.48;3.05;;;;;;;;;;5011666;28;20042;-60
2023/07/29 13:05:06;;;;;;;14.68;3.25;;;;;;;;;;5011885;28;20037;-60
2023/07/29 13:07:33;;;;;;;13.25;2.97;;;;;;;;;;5011930;28;20109;-60
2023/07/29 13:10:00;;;;;;;12.23;2.92;;;;;;;;;;5011817;28;20108;-60
2023/07/29 13:12:27;;;;;;;9.02;2.72;;;;;;;;;;5011867;28;20030;-60
2023/07/29 13:14:54;;;;;;;12.18;3.05;;;;;;;;;;5011916;28;20042;-60
2023/07/29 13:17:22;;;;;;;6.40;2.65;;;;;;;;;;5011763;28;20044;-60
2023/07/29 13:19:49;;;;;;;13.50;3.28;;;;;;;;;;5011843;28;20443;-60
2023/07/29 13:22:16;;;;;;;14.27;3.20;;;;;;;;;;5009411;28;20499;-60
2023/07/29 13:24:43;;;;;;;12.05;3.40;;;;;;;;;;5011375;28;20066;-60
2023/07/29 13:27:10;;;;;;;17.58;4.55;;;;;;;;;;5011744;28;20084;-60
2023/07/29 13:29:37;;;;;;;26.25;6.72;;;;;;;;;;5011438;28;20041;-60
2023/07/29 13:32:04;;;;;;;38.70;9.25;;;;;;;;;;5011650;28;20157;-60
2023/07/29 13:34:31;;;;;;;43.38;12.25;;;;;;;;;;5011674;28;20046;-60
2023/07/29 13:36:58;;;;;;;46.47;12.23;;;;;;;;;;5011611;28;20026;-60
2023/07/29 13:39:25;;;;;;;57.75;15.88;;;;;;;;;;5007863;28;20064;-60
2023/07/29 13:41:52;;;;;;;57.28;16.75;;;;;;;;;;5010728;28;20424;-60
2023/07/29 13:44:19;;;;;;;67.07;19.38;;;;;;;;;;5011058;28;20113;-60
2023/07/29 13:46:46;;;;;;;86.13;25.27;;;;;;;;;;5011197;28;20033;-60
2023/07/29 13:49:13;;;;;;;84.97;21.85;;;;;;;;;;5011291;28;20384;-60
2023/07/29 13:51:42;;;;;;;98.13;28.70;;;;;;;;;;5008215;28;20030;-59
2023/07/29 13:54:09;;;;;;;91.88;23.73;;;;;;;;;;5010413;28;20034;-59
2023/07/29 13:56:36;;;;;;;85.93;24.85;;;;;;;;;;5010727;28;20381;-60
2023/07/29 13:59:03;;;;;;;97.45;28.80;;;;;;;;;;5012296;28;20041;-60
2023/07/29 14:01:30;;;;;;;97.20;28.50;;;;;;;;;;5015214;28;20053;-62
2023/07/29 14:03:57;;;;;;;88.82;26.98;;;;;;;;;;5014867;28;20058;-62
2023/07/29 14:06:24;;;;;;;96.82;27.83;;;;;;;;;;5015027;28;20105;-61
2023/07/29 14:08:51;;;;;;;95.07;29.40;;;;;;;;;;5015046;28;20038;-62
2023/07/29 14:11:18;;;;;;;115.30;32.28;;;;;;;;;;5015030;28;20116;-62
2023/07/29 14:13:45;;;;;;;103.80;30.25;;;;;;;;;;5013088;28;20037;-62
2023/07/29 14:16:12;;;;;;;111.53;33.17;;;;;;;;;;5013884;28;20038;-62
2023/07/29 14:18:39;;;;;;;128.80;37.90;;;;;;;;;;5014034;28;20054;-62
2023/07/29 14:21:06;;;;;;;139.43;40.20;;;;;;;;;;5014896;28;20026;-62
2023/07/29 14:23:33;;;;;;;135.10;39.17;;;;;;;;;;5014723;28;20038;-62
2023/07/29 14:26:00;;;;;;;141.40;41.25;;;;;;;;;;5015087;28;20030;-62
2023/07/29 14:28:27;;;;;;;155.63;45.45;;;;;;;;;;5014663;28;20022;-62
2023/07/29 14:30:54;;;;;;;160.10;46.05;;;;;;;;;;5014717;28;20025;-62
2023/07/29 14:33:21;;;;;;;230.25;63.78;;;;;;;;;;5013408;28;20038;-62
2023/07/29 14:35:48;;;;;;;221.95;62.65;;;;;;;;;;5013911;28;20038;-62
2023/07/29 14:38:15;;;;;;;214.48;62.78;;;;;;;;;;5014537;28;20536;-61
2023/07/29 14:40:42;;;;;;;232.07;63.88;;;;;;;;;;5014329;28;20018;-62
2023/07/29 14:43:09;;;;;;;218.52;62.03;;;;;;;;;;5014270;28;20045;-62